createdAt,value
2022-09-27T00:00:27.359Z,66.20
2022-09-27T00:02:54.141Z,66.50
2022-09-27T00:05:20.923Z,66.10
2022-09-27T00:07:47.527Z,66.00
2022-09-27T00:10:14.494Z,66.50
2022-09-27T00:12:41.093Z,66.60
2022-09-27T00:15:08.517Z,66.60
2022-09-27T00:17:35.308Z,65.80
2022-09-27T00:20:02.666Z,66.10
2022-09-27T00:22:29.300Z,66.50
2022-09-27T00:24:55.891Z,66.50
2022-09-27T00:27:22.518Z,66.60
2022-09-27T00:29:49.576Z,66.30
2022-09-27T00:32:16.216Z,66.30
2022-09-27T00:34:42.842Z,66.30
2022-09-27T00:37:09.981Z,66.50
2022-09-27T00:39:38.232Z,66.70
2022-09-27T00:42:05.046Z,66.50
2022-09-27T00:44:38.541Z,66.30
2022-09-27T00:47:18.231Z,64.30
2022-09-27T00:49:48.143Z,63.80
2022-09-27T00:52:33.363Z,66.30
2022-09-27T00:55:06.988Z,63.90
2022-09-27T00:57:34.004Z,63.90
2022-09-27T01:00:09.716Z,66.80
2022-09-27T01:02:38.296Z,64.10
2022-09-27T01:05:06.157Z,67.00
2022-09-27T01:07:32.788Z,66.10
2022-09-27T01:09:59.434Z,66.30
2022-09-27T01:12:44.626Z,66.20
2022-09-27T01:15:23.486Z,63.90
2022-09-27T01:17:50.187Z,63.90
2022-09-27T01:20:35.836Z,66.00
2022-09-27T01:23:18.910Z,63.90
2022-09-27T01:25:55.242Z,63.80
2022-09-27T01:28:26.315Z,63.70
2022-09-27T01:30:55.943Z,63.70
2022-09-27T01:33:42.873Z,63.80
2022-09-27T01:36:09.477Z,65.80
2022-09-27T01:38:56.271Z,65.70
2022-09-27T01:41:32.182Z,63.80
2022-09-27T01:44:04.391Z,64.00
2022-09-27T01:46:37.625Z,64.00
2022-09-27T01:49:07.042Z,64.00
2022-09-27T01:51:40.061Z,66.70
2022-09-27T01:54:07.792Z,64.00
2022-09-27T01:56:43.415Z,66.50
2022-09-27T01:59:13.340Z,63.90
2022-09-27T02:01:41.746Z,63.80
2022-09-27T02:04:10.346Z,66.40
2022-09-27T02:06:40.094Z,66.40
2022-09-27T02:09:12.792Z,66.10
2022-09-27T02:11:42.101Z,63.90
2022-09-27T02:14:16.407Z,66.40
2022-09-27T02:16:53.208Z,63.80
2022-09-27T02:19:52.157Z,64.10
2022-09-27T02:22:21.551Z,63.90
2022-09-27T02:24:51.350Z,63.80
2022-09-27T02:27:24.182Z,63.80
2022-09-27T02:29:54.908Z,63.80
2022-09-27T02:32:21.534Z,66.30
2022-09-27T02:34:49.273Z,66.60
2022-09-27T02:37:15.915Z,66.30
2022-09-27T02:39:43.510Z,66.40
2022-09-27T02:42:10.247Z,66.60
2022-09-27T02:44:38.170Z,66.40
2022-09-27T02:47:13.744Z,66.70
2022-09-27T02:49:52.242Z,64.00
2022-09-27T02:52:26.996Z,63.90
2022-09-27T02:54:59.386Z,66.00
2022-09-27T02:57:26.008Z,63.80
2022-09-27T03:00:01.688Z,66.00
2022-09-27T03:02:33.250Z,63.90
2022-09-27T03:05:04.870Z,66.60
2022-09-27T03:07:31.509Z,66.30
2022-09-27T03:09:58.169Z,66.30
2022-09-27T03:12:27.454Z,65.70
2022-09-27T03:14:58.491Z,64.40
2022-09-27T03:17:25.231Z,63.80
2022-09-27T03:19:51.905Z,66.10
2022-09-27T03:22:18.903Z,66.40
2022-09-27T03:24:45.651Z,66.60
2022-09-27T03:27:12.618Z,66.70
2022-09-27T03:29:39.232Z,66.10
2022-09-27T03:32:05.890Z,66.10
2022-09-27T03:34:32.522Z,66.00
2022-09-27T03:36:59.213Z,66.30
2022-09-27T03:39:25.824Z,66.40
2022-09-27T03:41:53.066Z,66.10
2022-09-27T03:44:19.881Z,66.20
2022-09-27T03:46:46.869Z,67.10
2022-09-27T03:49:13.562Z,67.20
2022-09-27T03:51:40.261Z,65.80
2022-09-27T03:54:06.940Z,65.50
2022-09-27T03:56:33.553Z,65.40
2022-09-27T03:59:01.135Z,65.50
2022-09-27T04:01:28.295Z,66.00
2022-09-27T04:03:55.015Z,65.50
2022-09-27T04:06:22.932Z,65.60
2022-09-27T04:08:49.918Z,65.70
2022-09-27T04:11:17.568Z,65.70
2022-09-27T04:13:44.517Z,65.80
2022-09-27T04:16:11.212Z,65.90
2022-09-27T04:18:37.863Z,66.00
2022-09-27T04:21:04.534Z,66.30
2022-09-27T04:23:31.364Z,66.20
2022-09-27T04:25:58.039Z,66.20
2022-09-27T04:28:24.671Z,67.10
2022-09-27T04:30:51.368Z,66.70
2022-09-27T04:33:18.000Z,66.80
2022-09-27T04:36:03.225Z,66.90
2022-09-27T04:38:29.804Z,64.70
2022-09-27T04:40:56.484Z,66.10
2022-09-27T04:43:23.513Z,66.00
2022-09-27T04:45:50.134Z,66.10
2022-09-27T04:48:16.833Z,66.30
2022-09-27T04:50:43.452Z,66.00
2022-09-27T04:53:14.323Z,66.00
2022-09-27T04:55:44.838Z,64.20
2022-09-27T04:58:11.484Z,66.20
2022-09-27T05:00:38.110Z,65.80
2022-09-27T05:03:04.736Z,66.00
2022-09-27T05:05:31.354Z,66.10
2022-09-27T05:07:57.962Z,65.90
2022-09-27T05:10:24.525Z,66.00
2022-09-27T05:12:51.139Z,66.20
2022-09-27T05:15:17.782Z,66.10
2022-09-27T05:17:45.488Z,66.10
2022-09-27T05:20:12.163Z,67.20
2022-09-27T05:22:39.710Z,67.20
2022-09-27T05:25:06.476Z,67.60
2022-09-27T05:27:33.205Z,66.50
2022-09-27T05:30:01.854Z,67.40
2022-09-27T05:32:29.213Z,66.90
2022-09-27T05:34:55.963Z,66.70
2022-09-27T05:37:23.816Z,66.60
2022-09-27T05:39:50.465Z,66.60
2022-09-27T05:42:17.573Z,66.40
2022-09-27T05:44:47.531Z,66.50
2022-09-27T05:47:15.690Z,66.20
2022-09-27T05:49:42.474Z,66.00
2022-09-27T05:52:13.226Z,65.50
2022-09-27T05:54:42.682Z,65.70
2022-09-27T05:57:09.483Z,65.80
2022-09-27T05:59:36.141Z,65.70
2022-09-27T06:02:02.875Z,65.70
2022-09-27T06:04:29.590Z,65.80
2022-09-27T06:06:59.077Z,65.60
2022-09-27T06:09:27.375Z,65.60
2022-09-27T06:11:54.013Z,65.60
2022-09-27T06:14:20.867Z,65.50
2022-09-27T06:16:48.090Z,65.70
2022-09-27T06:19:15.050Z,65.70
2022-09-27T06:21:41.834Z,65.60
2022-09-27T06:24:08.463Z,66.20
2022-09-27T06:26:35.104Z,65.90
2022-09-27T06:29:01.743Z,65.90
2022-09-27T06:31:28.740Z,66.10
2022-09-27T06:33:55.389Z,65.40
2022-09-27T06:36:22.035Z,66.20
2022-09-27T06:38:49.149Z,66.20
2022-09-27T06:41:16.415Z,65.90
2022-09-27T06:43:43.100Z,66.70
2022-09-27T06:46:09.913Z,66.40
2022-09-27T06:48:38.516Z,66.40
2022-09-27T06:51:05.666Z,65.70
2022-09-27T06:53:32.327Z,66.10
2022-09-27T06:56:00.483Z,65.40
2022-09-27T06:58:45.958Z,64.50
2022-09-27T07:01:12.924Z,64.60
2022-09-27T07:03:41.635Z,65.10
2022-09-27T07:06:11.729Z,65.00
2022-09-27T07:08:38.607Z,65.40
2022-09-27T07:11:06.186Z,65.50
2022-09-27T07:13:34.498Z,65.60
2022-09-27T07:16:01.610Z,66.00
2022-09-27T07:18:28.534Z,65.40
2022-09-27T07:20:59.954Z,66.40
2022-09-27T07:23:27.174Z,66.30
2022-09-27T07:25:53.738Z,66.20
2022-09-27T07:28:22.020Z,66.30
2022-09-27T07:30:49.854Z,65.90
2022-09-27T07:33:16.593Z,65.60
2022-09-27T07:35:43.726Z,65.40
2022-09-27T07:38:13.210Z,65.30
2022-09-27T07:40:40.410Z,65.60
2022-09-27T07:43:08.213Z,66.20
2022-09-27T07:45:35.447Z,66.20
2022-09-27T07:48:04.661Z,66.70
2022-09-27T07:50:31.260Z,66.20
2022-09-27T07:52:58.028Z,66.30
2022-09-27T07:55:24.915Z,65.60
2022-09-27T07:57:51.976Z,65.40
2022-09-27T08:00:21.827Z,65.60
2022-09-27T08:02:48.415Z,65.60
2022-09-27T08:05:15.165Z,65.60
2022-09-27T08:07:41.773Z,65.00
2022-09-27T08:10:08.962Z,66.20
2022-09-27T08:12:36.080Z,65.10
2022-09-27T08:15:04.259Z,65.90
2022-09-27T08:17:31.769Z,65.70
2022-09-27T08:19:58.453Z,65.70
2022-09-27T08:22:25.164Z,64.60
2022-09-27T08:24:51.852Z,64.90
2022-09-27T08:27:18.476Z,65.10
2022-09-27T08:29:45.103Z,64.60
2022-09-27T08:32:12.098Z,64.60
2022-09-27T08:34:38.859Z,65.20
2022-09-27T08:37:05.566Z,64.80
2022-09-27T08:39:32.190Z,64.90
2022-09-27T08:42:10.198Z,64.80
2022-09-27T08:45:09.180Z,62.60
2022-09-27T08:47:35.762Z,62.40
2022-09-27T08:50:28.767Z,64.60
2022-09-27T08:52:57.650Z,62.30
2022-09-27T08:55:38.321Z,64.90
2022-09-27T08:58:11.452Z,62.20
2022-09-27T09:00:39.149Z,65.30
2022-09-27T09:03:05.854Z,65.10
2022-09-27T09:05:34.761Z,64.60
2022-09-27T09:08:07.257Z,64.80
2022-09-27T09:11:01.881Z,62.50
2022-09-27T09:13:38.884Z,62.90
2022-09-27T09:16:15.917Z,62.80
2022-09-27T09:18:48.659Z,62.30
2022-09-27T09:21:38.642Z,62.30
2022-09-27T09:24:18.230Z,62.20
2022-09-27T09:26:44.817Z,62.70
2022-09-27T09:29:11.426Z,64.60
2022-09-27T09:31:42.539Z,63.90
2022-09-27T09:34:15.590Z,62.10
2022-09-27T09:37:04.026Z,61.90
2022-09-27T09:39:36.164Z,61.80
2022-09-27T09:42:06.290Z,62.00
2022-09-27T09:44:45.760Z,61.90
2022-09-27T09:47:17.211Z,61.90
2022-09-27T09:49:46.204Z,64.20
2022-09-27T09:52:16.147Z,63.60
2022-09-27T09:54:46.216Z,63.40
2022-09-27T09:57:16.812Z,63.40
2022-09-27T09:59:47.340Z,63.30
2022-09-27T10:02:19.490Z,63.30
2022-09-27T10:04:46.137Z,63.50
2022-09-27T10:07:13.357Z,63.40
2022-09-27T10:09:40.392Z,63.40
2022-09-27T10:12:07.132Z,63.40
2022-09-27T10:14:33.912Z,63.10
2022-09-27T10:17:02.256Z,63.00
2022-09-27T10:19:30.394Z,63.40
2022-09-27T10:22:00.012Z,63.30
2022-09-27T10:24:26.696Z,63.30
2022-09-27T10:26:57.080Z,62.90
2022-09-27T10:29:24.847Z,63.10
2022-09-27T10:31:52.489Z,63.10
2022-09-27T10:34:30.678Z,63.20
2022-09-27T10:37:04.945Z,61.60
2022-09-27T10:39:31.685Z,61.60
2022-09-27T10:41:58.355Z,63.00
2022-09-27T10:44:25.521Z,63.10
2022-09-27T10:47:06.563Z,63.10
2022-09-27T10:49:33.216Z,63.10
2022-09-27T10:52:01.449Z,63.00
2022-09-27T10:54:33.322Z,63.20
2022-09-27T10:57:04.924Z,63.20
2022-09-27T10:59:33.845Z,61.70
2022-09-27T11:02:00.876Z,63.10
2022-09-27T11:04:32.260Z,62.90
2022-09-27T11:07:18.463Z,61.60
2022-09-27T11:09:54.561Z,61.60
2022-09-27T11:12:22.999Z,61.70
2022-09-27T11:15:02.258Z,63.40
2022-09-27T11:17:40.702Z,61.60
2022-09-27T11:20:16.568Z,61.50
2022-09-27T11:22:58.393Z,61.50
2022-09-27T11:25:40.105Z,61.50
2022-09-27T11:28:06.723Z,61.50
2022-09-27T11:30:51.921Z,63.30
2022-09-27T11:33:36.950Z,61.50
2022-09-27T11:36:14.699Z,62.30
2022-09-27T11:38:53.636Z,62.30
2022-09-27T11:41:26.945Z,62.20
2022-09-27T11:43:56.547Z,62.20
2022-09-27T11:46:29.938Z,62.40
2022-09-27T11:49:02.929Z,64.40
2022-09-27T11:51:41.825Z,62.60
2022-09-27T11:54:14.630Z,62.50
2022-09-27T11:56:48.596Z,62.60
2022-09-27T11:59:22.446Z,64.60
2022-09-27T12:01:55.988Z,62.70
2022-09-27T12:04:22.576Z,61.50
2022-09-27T12:06:55.339Z,62.10
2022-09-27T12:09:23.943Z,62.00
2022-09-27T12:11:52.956Z,62.20
2022-09-27T12:14:27.095Z,62.10
2022-09-27T12:16:54.840Z,62.20
2022-09-27T12:19:29.777Z,62.30
2022-09-27T12:21:57.270Z,62.40
2022-09-27T12:24:24.709Z,62.50
2022-09-27T12:26:54.219Z,62.20
2022-09-27T12:29:32.206Z,62.50
2022-09-27T12:32:01.604Z,62.70
2022-09-27T12:34:37.764Z,62.50
2022-09-27T12:37:14.972Z,62.20
2022-09-27T12:39:46.973Z,62.00
2022-09-27T12:42:17.146Z,62.50
2022-09-27T12:44:47.521Z,62.30
2022-09-27T12:47:18.207Z,62.50
2022-09-27T12:50:14.700Z,62.10
2022-09-27T12:52:47.425Z,62.30
2022-09-27T12:55:23.991Z,62.30
2022-09-27T12:58:07.675Z,62.30
2022-09-27T13:00:41.758Z,62.30
2022-09-27T13:03:15.855Z,62.50
2022-09-27T13:06:04.740Z,61.80
2022-09-27T13:08:53.924Z,61.80
2022-09-27T13:11:47.419Z,61.80
2022-09-27T13:14:19.824Z,61.10
2022-09-27T13:16:47.960Z,61.10
2022-09-27T13:19:33.292Z,61.20
2022-09-27T13:22:00.049Z,61.40
2022-09-27T13:24:47.019Z,61.60
2022-09-27T13:27:36.877Z,61.70
2022-09-27T13:30:12.546Z,61.70
2022-09-27T13:32:40.929Z,61.90
2022-09-27T13:35:12.888Z,62.30
2022-09-27T13:37:46.545Z,62.10
2022-09-27T13:40:16.334Z,62.10
2022-09-27T13:42:48.880Z,62.00
2022-09-27T13:45:19.079Z,62.30
2022-09-27T13:47:47.231Z,62.60
2022-09-27T13:50:24.462Z,63.00
2022-09-27T13:53:14.125Z,62.80
2022-09-27T13:55:47.966Z,63.00
2022-09-27T13:58:14.560Z,63.00
2022-09-27T14:00:43.503Z,63.30
2022-09-27T14:03:13.325Z,63.20
2022-09-27T14:05:51.784Z,63.00
2022-09-27T14:08:24.967Z,63.00
2022-09-27T14:10:52.505Z,63.20
2022-09-27T14:13:22.726Z,62.90
2022-09-27T14:15:50.214Z,62.90
2022-09-27T14:18:17.079Z,62.80
2022-09-27T14:20:45.335Z,62.60
2022-09-27T14:23:20.658Z,62.40
2022-09-27T14:25:48.391Z,62.40
2022-09-27T14:28:41.501Z,62.40
2022-09-27T14:31:14.415Z,62.30
2022-09-27T14:33:41.098Z,62.30
2022-09-27T14:36:27.469Z,62.50
2022-09-27T14:38:54.162Z,62.50
2022-09-27T14:41:20.778Z,62.50
2022-09-27T14:43:50.523Z,62.20
2022-09-27T14:46:28.211Z,62.20
2022-09-27T14:48:55.781Z,62.20
2022-09-27T14:51:28.195Z,62.30
2022-09-27T14:53:58.393Z,62.50
2022-09-27T14:56:32.111Z,62.30
2022-09-27T14:59:11.428Z,62.60
2022-09-27T15:01:40.034Z,62.70
2022-09-27T15:04:08.387Z,62.60
2022-09-27T15:06:38.232Z,62.40
2022-09-27T15:09:06.990Z,62.40
2022-09-27T15:11:34.793Z,62.30
2022-09-27T15:14:03.792Z,62.40
2022-09-27T15:16:31.188Z,62.30
2022-09-27T15:19:03.428Z,62.30
2022-09-27T15:21:31.887Z,61.80
2022-09-27T15:23:59.313Z,61.60
2022-09-27T15:26:27.335Z,61.60
2022-09-27T15:28:54.054Z,61.40
2022-09-27T15:31:31.358Z,61.40
2022-09-27T15:33:59.098Z,61.30
2022-09-27T15:36:44.143Z,61.20
2022-09-27T15:39:16.131Z,61.10
2022-09-27T15:42:00.502Z,61.10
2022-09-27T15:44:45.925Z,61.00
2022-09-27T15:47:39.056Z,61.00
2022-09-27T15:50:14.714Z,61.00
2022-09-27T15:52:42.886Z,61.10
2022-09-27T15:55:12.820Z,61.40
2022-09-27T15:57:39.915Z,61.70
2022-09-27T16:00:07.159Z,61.70
2022-09-27T16:02:33.816Z,62.30
2022-09-27T16:05:00.501Z,62.10
2022-09-27T16:07:27.288Z,62.10
2022-09-27T16:09:55.570Z,62.00
2022-09-27T16:12:22.546Z,62.10
2022-09-27T16:14:49.201Z,62.10
2022-09-27T16:17:15.804Z,62.30
2022-09-27T16:19:42.484Z,62.30
2022-09-27T16:22:09.072Z,62.20
2022-09-27T16:24:35.646Z,62.20
2022-09-27T16:27:03.136Z,62.40
2022-09-27T16:29:29.713Z,62.30
2022-09-27T16:31:57.031Z,62.50
2022-09-27T16:34:24.021Z,62.40
2022-09-27T16:36:50.694Z,62.50
2022-09-27T16:39:17.465Z,62.50
2022-09-27T16:41:44.158Z,62.50
2022-09-27T16:44:12.149Z,62.50
2022-09-27T16:46:42.766Z,62.40
2022-09-27T16:49:29.382Z,61.70
2022-09-27T16:52:01.886Z,62.60
2022-09-27T16:54:29.306Z,62.00
2022-09-27T16:56:56.417Z,62.40
2022-09-27T16:59:24.818Z,62.50
2022-09-27T17:01:51.842Z,62.40
2022-09-27T17:04:18.553Z,62.50
2022-09-27T17:06:45.129Z,62.40
2022-09-27T17:09:12.081Z,62.70
2022-09-27T17:11:38.766Z,62.60
2022-09-27T17:14:05.353Z,62.60
2022-09-27T17:16:32.092Z,62.50
2022-09-27T17:18:59.039Z,62.50
2022-09-27T17:21:25.713Z,62.50
2022-09-27T17:23:53.462Z,62.70
2022-09-27T17:26:21.499Z,63.10
2022-09-27T17:28:48.217Z,63.90
2022-09-27T17:31:15.953Z,63.90
2022-09-27T17:33:45.153Z,63.90
2022-09-27T17:36:13.313Z,64.20
2022-09-27T17:38:40.527Z,64.70
2022-09-27T17:41:10.400Z,65.40
2022-09-27T17:43:39.282Z,68.80
2022-09-27T17:46:07.060Z,64.80
2022-09-27T17:48:52.698Z,72.90
2022-09-27T17:51:19.306Z,63.30
2022-09-27T17:53:46.008Z,63.10
2022-09-27T17:56:12.727Z,62.40
2022-09-27T17:58:39.403Z,62.20
2022-09-27T18:01:07.179Z,62.20
2022-09-27T18:03:34.454Z,62.20
2022-09-27T18:06:05.203Z,62.10
2022-09-27T18:08:32.226Z,61.90
2022-09-27T18:11:05.111Z,62.10
2022-09-27T18:13:37.142Z,61.90
2022-09-27T18:16:04.876Z,62.00
2022-09-27T18:18:33.126Z,62.00
2022-09-27T18:21:01.083Z,62.00
2022-09-27T18:23:29.003Z,61.90
2022-09-27T18:25:56.021Z,62.00
2022-09-27T18:28:29.257Z,62.00
2022-09-27T18:31:00.807Z,61.90
2022-09-27T18:33:27.515Z,62.00
2022-09-27T18:35:54.098Z,62.10
2022-09-27T18:38:20.704Z,62.20
2022-09-27T18:40:56.267Z,62.20
2022-09-27T18:43:26.616Z,62.20
2022-09-27T18:45:53.335Z,62.10
2022-09-27T18:48:19.936Z,62.20
2022-09-27T18:50:46.651Z,62.30
2022-09-27T18:53:13.279Z,62.30
2022-09-27T18:55:41.457Z,62.30
2022-09-27T18:58:08.293Z,62.30
2022-09-27T19:00:35.840Z,62.20
2022-09-27T19:03:02.522Z,62.20
2022-09-27T19:05:29.136Z,62.70
2022-09-27T19:07:55.716Z,62.60
2022-09-27T19:10:22.326Z,62.70
2022-09-27T19:12:48.976Z,62.80
2022-09-27T19:15:15.625Z,62.70
2022-09-27T19:17:42.243Z,62.60
2022-09-27T19:20:09.664Z,62.80
2022-09-27T19:22:36.373Z,62.30
2022-09-27T19:25:03.101Z,62.80
2022-09-27T19:27:30.407Z,62.40
2022-09-27T19:29:59.121Z,62.30
2022-09-27T19:32:26.204Z,62.20
2022-09-27T19:34:52.828Z,62.80
2022-09-27T19:37:19.467Z,62.60
2022-09-27T19:39:46.137Z,62.50
2022-09-27T19:42:12.734Z,62.40
2022-09-27T19:44:39.389Z,62.80
2022-09-27T19:47:06.018Z,62.20
2022-09-27T19:49:32.713Z,62.30
2022-09-27T19:51:59.580Z,62.20
2022-09-27T19:54:26.214Z,62.20
2022-09-27T19:56:52.779Z,62.30
2022-09-27T19:59:19.446Z,62.30
2022-09-27T20:01:46.315Z,62.20
2022-09-27T20:04:13.180Z,62.20
2022-09-27T20:06:39.857Z,62.20
2022-09-27T20:09:06.443Z,62.30
2022-09-27T20:11:34.068Z,62.30
2022-09-27T20:14:00.912Z,62.20
2022-09-27T20:16:27.743Z,62.30
2022-09-27T20:18:55.603Z,62.30
2022-09-27T20:21:23.076Z,62.50
2022-09-27T20:23:50.679Z,62.60
2022-09-27T20:26:18.758Z,62.60
2022-09-27T20:28:46.327Z,62.60
2022-09-27T20:31:14.178Z,62.70
2022-09-27T20:33:41.100Z,62.70
2022-09-27T20:36:26.128Z,62.90
2022-09-27T20:38:57.124Z,61.90
2022-09-27T20:41:26.301Z,62.40
2022-09-27T20:43:54.582Z,62.50
2022-09-27T20:46:21.785Z,62.50
2022-09-27T20:48:58.984Z,62.40
2022-09-27T20:51:26.261Z,62.50
2022-09-27T20:53:53.305Z,62.40
2022-09-27T20:56:19.959Z,62.40
2022-09-27T20:58:47.419Z,62.40
2022-09-27T21:01:14.433Z,62.70
2022-09-27T21:03:41.100Z,62.40
2022-09-27T21:06:07.897Z,62.50
2022-09-27T21:08:34.563Z,62.30
2022-09-27T21:11:11.534Z,62.50
2022-09-27T21:13:41.308Z,61.90
2022-09-27T21:16:09.316Z,62.40
2022-09-27T21:18:36.491Z,62.50
2022-09-27T21:21:04.517Z,62.90
2022-09-27T21:23:31.791Z,62.80
2022-09-27T21:26:05.854Z,62.90
2022-09-27T21:28:33.485Z,61.90
2022-09-27T21:31:10.273Z,62.80
2022-09-27T21:33:37.531Z,61.90
2022-09-27T21:36:04.955Z,62.50
2022-09-27T21:38:31.972Z,62.60
2022-09-27T21:40:59.800Z,62.80
2022-09-27T21:43:27.363Z,62.80
2022-09-27T21:45:54.218Z,62.90
2022-09-27T21:48:20.799Z,63.30
2022-09-27T21:50:49.135Z,62.90
2022-09-27T21:53:16.180Z,62.80
2022-09-27T21:55:43.150Z,62.60
2022-09-27T21:58:09.761Z,62.50
2022-09-27T22:00:36.376Z,62.60
2022-09-27T22:03:03.094Z,62.50
2022-09-27T22:05:29.676Z,62.50
2022-09-27T22:07:56.291Z,62.40
2022-09-27T22:10:22.869Z,62.30
2022-09-27T22:12:49.438Z,62.40
2022-09-27T22:15:16.038Z,62.40
2022-09-27T22:17:42.705Z,62.40
2022-09-27T22:20:09.365Z,62.50
2022-09-27T22:22:35.983Z,62.40
2022-09-27T22:25:02.584Z,62.40
2022-09-27T22:27:29.165Z,62.50
2022-09-27T22:29:55.756Z,62.40
2022-09-27T22:32:22.583Z,62.40
2022-09-27T22:34:50.105Z,62.40
2022-09-27T22:37:16.696Z,62.30
2022-09-27T22:39:43.276Z,62.40
2022-09-27T22:42:09.930Z,62.40
2022-09-27T22:44:37.415Z,62.30
2022-09-27T22:47:04.071Z,62.70
2022-09-27T22:49:30.703Z,62.80
2022-09-27T22:51:57.347Z,62.40
2022-09-27T22:54:23.926Z,62.30
2022-09-27T22:56:57.022Z,62.30
2022-09-27T22:59:24.699Z,62.30
2022-09-27T23:01:51.674Z,62.20
2022-09-27T23:04:18.419Z,62.20
2022-09-27T23:06:45.359Z,62.20
2022-09-27T23:09:12.180Z,62.20
2022-09-27T23:11:38.759Z,62.20
2022-09-27T23:14:05.639Z,62.30
2022-09-27T23:16:32.854Z,62.20
2022-09-27T23:19:00.100Z,62.20
2022-09-27T23:21:28.588Z,62.00
2022-09-27T23:23:56.172Z,62.20
2022-09-27T23:26:25.859Z,62.20
2022-09-27T23:28:53.661Z,62.20
2022-09-27T23:31:21.998Z,62.20
2022-09-27T23:33:49.001Z,62.30
2022-09-27T23:36:17.014Z,62.30
2022-09-27T23:38:45.527Z,62.20
2022-09-27T23:41:12.536Z,62.30
2022-09-27T23:43:39.119Z,62.30
2022-09-27T23:46:06.712Z,62.40
2022-09-27T23:48:34.641Z,62.20
2022-09-27T23:51:01.829Z,62.30
2022-09-27T23:53:28.683Z,62.30
2022-09-27T23:56:02.596Z,62.30
2022-09-27T23:58:32.163Z,61.80
